createdAt,value
2018-04-13T00:01:26.406Z,29.40
2018-04-13T00:03:54.027Z,29.00
2018-04-13T00:06:23.012Z,29.20
2018-04-13T00:08:51.361Z,29.57
2018-04-13T00:11:19.024Z,29.70
2018-04-13T00:13:46.888Z,29.63
2018-04-13T00:16:14.454Z,28.90
2018-04-13T00:18:42.084Z,30.37
2018-04-13T00:21:09.677Z,31.70
2018-04-13T00:23:37.265Z,30.77
2018-04-13T00:26:05.633Z,34.10
2018-04-13T00:28:33.247Z,30.53
2018-04-13T00:31:00.833Z,32.07
2018-04-13T00:33:28.421Z,32.77
2018-04-13T00:35:56.828Z,34.13
2018-04-13T00:38:24.417Z,35.20
2018-04-13T00:40:52.310Z,31.17
2018-04-13T00:43:19.924Z,35.77
2018-04-13T00:45:47.504Z,34.50
2018-04-13T00:48:15.061Z,34.60
2018-04-13T00:50:42.847Z,34.53
2018-04-13T00:53:22.242Z,30.87
2018-04-13T00:55:49.868Z,33.63
2018-04-13T00:58:18.247Z,33.60
2018-04-13T01:00:46.591Z,35.23
2018-04-13T01:03:14.180Z,34.00
2018-04-13T01:05:42.552Z,36.33
2018-04-13T01:08:10.897Z,35.73
2018-04-13T01:10:38.499Z,32.87
2018-04-13T01:13:06.909Z,35.90
2018-04-13T01:15:34.487Z,34.13
2018-04-13T01:18:02.089Z,33.17
2018-04-13T01:20:30.429Z,36.57
2018-04-13T01:22:58.002Z,34.73
2018-04-13T01:25:25.648Z,32.03
2018-04-13T01:27:53.236Z,37.23
2018-04-13T01:30:21.600Z,38.83
2018-04-13T01:32:49.227Z,40.43
2018-04-13T01:35:16.808Z,41.03
2018-04-13T01:37:44.375Z,37.03
2018-04-13T01:40:11.971Z,35.63
2018-04-13T01:42:40.308Z,36.23
2018-04-13T01:45:07.868Z,39.47
2018-04-13T01:47:35.476Z,39.13
2018-04-13T01:50:03.135Z,40.20
2018-04-13T01:52:32.175Z,39.27
2018-04-13T01:54:59.813Z,40.90
2018-04-13T01:57:27.374Z,38.33
2018-04-13T01:59:54.948Z,40.27
2018-04-13T02:02:22.536Z,39.57
2018-04-13T02:04:50.827Z,39.13
2018-04-13T02:07:19.166Z,41.23
2018-04-13T02:09:46.761Z,39.47
2018-04-13T02:12:15.048Z,45.40
2018-04-13T02:14:43.411Z,42.33
2018-04-13T02:17:11.079Z,41.03
2018-04-13T02:19:40.405Z,39.33
2018-04-13T02:22:07.982Z,44.13
2018-04-13T02:24:35.564Z,42.47
2018-04-13T02:27:03.186Z,39.03
2018-04-13T02:29:30.755Z,43.77
2018-04-13T02:31:58.335Z,41.97
2018-04-13T02:34:26.062Z,38.37
2018-04-13T02:36:53.602Z,43.37
2018-04-13T02:39:21.949Z,41.33
2018-04-13T02:41:49.539Z,43.57
2018-04-13T02:44:17.864Z,41.13
2018-04-13T02:46:45.481Z,43.30
2018-04-13T02:49:13.146Z,43.60
2018-04-13T02:51:40.897Z,47.40
2018-04-13T02:54:09.256Z,44.57
2018-04-13T02:56:36.842Z,43.53
2018-04-13T02:59:05.356Z,46.53
2018-04-13T03:01:32.940Z,43.10
2018-04-13T03:04:00.545Z,45.70
2018-04-13T03:06:29.387Z,44.10
2018-04-13T03:08:56.991Z,46.00
2018-04-13T03:11:26.012Z,49.43
2018-04-13T03:13:53.700Z,45.60
2018-04-13T03:16:21.301Z,44.53
2018-04-13T03:18:49.674Z,47.80
2018-04-13T03:21:17.249Z,41.93
2018-04-13T03:23:45.747Z,45.97
2018-04-13T03:26:13.358Z,43.93
2018-04-13T03:28:41.140Z,47.40
2018-04-13T03:31:09.569Z,42.80
2018-04-13T03:33:37.167Z,45.80
2018-04-13T03:36:04.744Z,43.57
2018-04-13T03:38:33.117Z,47.90
2018-04-13T03:41:01.473Z,44.90
2018-04-13T03:43:29.095Z,51.37
2018-04-13T03:45:56.725Z,45.60
2018-04-13T03:48:25.051Z,44.67
2018-04-13T03:50:52.690Z,44.67
2018-04-13T03:53:20.260Z,48.03
2018-04-13T03:55:47.829Z,48.50
2018-04-13T03:58:15.429Z,43.37
2018-04-13T04:00:43.767Z,46.83
2018-04-13T04:03:11.607Z,44.07
2018-04-13T04:05:39.167Z,46.57
2018-04-13T04:08:06.746Z,46.50
2018-04-13T04:10:34.477Z,43.63
2018-04-13T04:13:02.051Z,45.50
2018-04-13T04:15:29.630Z,46.90
2018-04-13T04:17:57.219Z,45.37
2018-04-13T04:20:36.671Z,44.83
2018-04-13T04:23:16.805Z,48.27
2018-04-13T04:25:51.900Z,43.47
2018-04-13T04:28:19.488Z,47.03
2018-04-13T04:30:47.072Z,41.67
2018-04-13T04:33:14.672Z,47.20
2018-04-13T04:35:42.260Z,49.90
2018-04-13T04:38:09.888Z,41.50
2018-04-13T04:40:37.451Z,43.80
2018-04-13T04:43:05.026Z,48.03
2018-04-13T04:45:32.702Z,46.70
2018-04-13T04:48:00.306Z,46.63
2018-04-13T04:50:28.704Z,41.83
2018-04-13T04:52:56.344Z,45.60
2018-04-13T04:55:24.706Z,50.03
2018-04-13T04:57:52.425Z,42.57
2018-04-13T05:00:20.011Z,40.87
2018-04-13T05:02:47.575Z,36.40
2018-04-13T05:05:15.408Z,40.17
2018-04-13T05:07:43.002Z,38.83
2018-04-13T05:10:10.597Z,40.97
2018-04-13T05:12:38.961Z,40.93
2018-04-13T05:15:07.296Z,46.77
2018-04-13T05:17:34.902Z,39.57
2018-04-13T05:20:03.448Z,38.03
2018-04-13T05:22:31.092Z,35.93
2018-04-13T05:24:59.353Z,38.17
2018-04-13T05:27:27.889Z,38.10
2018-04-13T05:29:55.459Z,40.07
2018-04-13T05:32:24.726Z,37.00
2018-04-13T05:34:52.291Z,38.87
2018-04-13T05:37:19.942Z,40.83
2018-04-13T05:39:47.535Z,37.50
2018-04-13T05:42:15.860Z,37.57
2018-04-13T05:44:43.467Z,36.13
2018-04-13T05:47:11.023Z,38.73
2018-04-13T05:49:39.908Z,36.60
2018-04-13T05:52:07.518Z,36.37
2018-04-13T05:54:35.138Z,39.00
2018-04-13T05:57:03.493Z,42.63
2018-04-13T05:59:31.076Z,41.30
2018-04-13T06:01:59.418Z,40.03
2018-04-13T06:04:26.988Z,42.80
2018-04-13T06:06:54.909Z,45.20
2018-04-13T06:09:22.500Z,34.07
2018-04-13T06:11:50.082Z,35.83
2018-04-13T06:14:17.663Z,34.67
2018-04-13T06:16:46.039Z,36.70
2018-04-13T06:19:14.376Z,41.23
2018-04-13T06:21:42.117Z,39.40
2018-04-13T06:24:09.702Z,36.20
2018-04-13T06:26:37.257Z,34.73
2018-04-13T06:29:04.858Z,33.53
2018-04-13T06:31:33.199Z,31.17
2018-04-13T06:34:00.792Z,35.47
2018-04-13T06:36:29.128Z,31.50
2018-04-13T06:38:56.765Z,34.50
2018-04-13T06:41:24.364Z,35.83
2018-04-13T06:43:52.110Z,34.73
2018-04-13T06:46:19.735Z,34.90
2018-04-13T06:48:47.350Z,28.20
2018-04-13T06:51:14.954Z,28.80
2018-04-13T06:53:42.585Z,29.87
2018-04-13T06:56:10.152Z,31.50
2018-04-13T06:58:38.640Z,33.17
2018-04-13T07:01:07.043Z,31.03
2018-04-13T07:03:34.872Z,28.03
2018-04-13T07:06:02.427Z,33.93
2018-04-13T07:08:30.830Z,32.10
2018-04-13T07:10:59.220Z,34.97
2018-04-13T07:13:26.868Z,31.17
2018-04-13T07:15:55.243Z,25.57
2018-04-13T07:18:23.579Z,28.23
2018-04-13T07:20:51.207Z,30.23
2018-04-13T07:23:18.821Z,33.47
2018-04-13T07:25:46.412Z,28.00
2018-04-13T07:28:14.023Z,28.97
2018-04-13T07:30:41.636Z,26.80
2018-04-13T07:33:09.418Z,25.73
2018-04-13T07:35:36.989Z,27.03
2018-04-13T07:38:04.605Z,27.00
2018-04-13T07:40:32.227Z,29.43
2018-04-13T07:42:59.798Z,25.80
2018-04-13T07:45:27.737Z,26.67
2018-04-13T07:47:56.131Z,27.87
2018-04-13T07:50:23.701Z,28.17
2018-04-13T07:52:51.341Z,25.80
2018-04-13T07:55:18.924Z,25.93
2018-04-13T07:57:48.010Z,23.30
2018-04-13T08:00:15.658Z,25.30
2018-04-13T08:02:43.271Z,26.47
2018-04-13T08:05:11.604Z,29.50
2018-04-13T08:07:39.220Z,26.80
2018-04-13T08:10:06.776Z,27.50
2018-04-13T08:12:35.237Z,24.20
2018-04-13T08:15:03.710Z,27.57
2018-04-13T08:17:31.288Z,25.47
2018-04-13T08:19:59.618Z,25.07
2018-04-13T08:22:27.262Z,23.57
2018-04-13T08:24:55.644Z,24.50
2018-04-13T08:27:23.243Z,24.87
2018-04-13T08:29:51.600Z,27.70
2018-04-13T08:32:19.227Z,21.97
2018-04-13T08:34:47.704Z,23.07
2018-04-13T08:37:15.918Z,23.50
2018-04-13T08:39:43.625Z,21.90
2018-04-13T08:42:11.202Z,24.33
2018-04-13T08:44:38.790Z,23.90
2018-04-13T08:47:06.654Z,23.47
2018-04-13T08:49:34.237Z,26.47
2018-04-13T08:52:02.080Z,19.33
2018-04-13T08:54:29.650Z,20.97
2018-04-13T08:56:57.224Z,23.27
2018-04-13T08:59:24.923Z,23.13
2018-04-13T09:01:52.554Z,20.17
2018-04-13T09:04:20.901Z,18.80
2018-04-13T09:06:48.776Z,20.53
2018-04-13T09:09:16.406Z,17.13
2018-04-13T09:11:44.019Z,16.40
2018-04-13T09:14:12.371Z,18.80
2018-04-13T09:16:39.980Z,18.70
2018-04-13T09:19:07.588Z,16.57
2018-04-13T09:21:35.155Z,15.60
2018-04-13T09:24:03.530Z,17.50
2018-04-13T09:26:31.136Z,20.00
2018-04-13T09:28:58.739Z,19.30
2018-04-13T09:31:26.356Z,16.47
2018-04-13T09:33:53.916Z,13.60
2018-04-13T09:36:21.531Z,16.43
2018-04-13T09:38:49.116Z,19.07
2018-04-13T09:41:17.665Z,17.33
2018-04-13T09:43:45.271Z,19.27
2018-04-13T09:46:12.915Z,15.33
2018-04-13T09:48:40.465Z,12.63
2018-04-13T09:51:08.075Z,17.37
2018-04-13T09:53:35.741Z,16.63
2018-04-13T09:56:03.302Z,16.27
2018-04-13T09:58:30.880Z,16.30
2018-04-13T10:01:00.290Z,16.10
2018-04-13T10:03:28.120Z,15.63
2018-04-13T10:05:55.764Z,14.10
2018-04-13T10:08:23.373Z,17.27
2018-04-13T10:10:50.958Z,14.03
2018-04-13T10:13:19.708Z,17.47
2018-04-13T10:15:47.384Z,16.37
2018-04-13T10:18:14.928Z,15.37
2018-04-13T10:20:42.511Z,19.53
2018-04-13T10:23:10.364Z,13.17
2018-04-13T10:25:38.095Z,17.00
2018-04-13T10:28:05.685Z,12.83
2018-04-13T10:30:33.303Z,14.63
2018-04-13T10:33:00.877Z,19.27
2018-04-13T10:35:28.473Z,18.97
2018-04-13T10:37:56.071Z,19.17
2018-04-13T10:40:23.948Z,14.97
2018-04-13T10:42:51.522Z,16.50
2018-04-13T10:45:19.120Z,16.23
2018-04-13T10:47:46.699Z,18.80
2018-04-13T10:50:15.061Z,11.80
2018-04-13T10:52:43.706Z,15.87
2018-04-13T10:55:11.332Z,17.00
2018-04-13T10:57:39.688Z,16.73
2018-04-13T11:00:07.266Z,14.67
2018-04-13T11:02:35.626Z,12.60
2018-04-13T11:05:04.002Z,17.17
2018-04-13T11:07:32.427Z,13.30
2018-04-13T11:10:01.034Z,21.83
2018-04-13T11:12:29.764Z,11.80
2018-04-13T11:14:58.160Z,12.30
2018-04-13T11:17:25.733Z,14.30
2018-04-13T11:19:53.323Z,13.70
2018-04-13T11:22:21.071Z,13.37
2018-04-13T11:24:48.684Z,11.47
2018-04-13T11:27:16.307Z,7.13
2018-04-13T11:29:43.889Z,9.57
2018-04-13T11:32:11.983Z,13.57
2018-04-13T11:34:40.502Z,11.23
2018-04-13T11:37:08.673Z,12.00
2018-04-13T11:39:36.249Z,12.80
2018-04-13T11:42:03.862Z,10.33
2018-04-13T11:44:31.465Z,7.80
2018-04-13T11:46:59.030Z,10.37
2018-04-13T11:49:26.600Z,8.10
2018-04-13T11:51:54.413Z,10.40
2018-04-13T11:54:21.984Z,8.00
2018-04-13T11:56:49.633Z,9.93
2018-04-13T11:59:17.189Z,9.73
2018-04-13T12:01:44.766Z,8.40
2018-04-13T12:04:12.386Z,9.90
2018-04-13T12:06:40.729Z,7.60
2018-04-13T12:09:08.406Z,9.30
2018-04-13T12:11:35.959Z,12.73
2018-04-13T12:14:04.367Z,8.80
2018-04-13T12:16:32.840Z,10.10
2018-04-13T12:19:01.173Z,10.23
2018-04-13T12:21:28.770Z,9.73
2018-04-13T12:23:56.368Z,8.40
2018-04-13T12:26:23.966Z,9.67
2018-04-13T12:28:51.531Z,8.60
2018-04-13T12:31:19.349Z,6.03
2018-04-13T12:33:47.691Z,10.70
2018-04-13T12:36:15.339Z,4.57
2018-04-13T12:38:42.917Z,6.50
2018-04-13T12:41:11.307Z,8.83
2018-04-13T12:43:38.910Z,11.13
2018-04-13T12:46:06.854Z,9.30
2018-04-13T12:48:34.500Z,8.10
2018-04-13T12:51:02.849Z,6.17
2018-04-13T12:53:31.977Z,8.67
2018-04-13T12:55:59.578Z,12.47
2018-04-13T12:58:28.068Z,11.80
2018-04-13T13:00:55.829Z,11.37
2018-04-13T13:03:23.414Z,7.40
2018-04-13T13:05:51.075Z,7.80
2018-04-13T13:08:18.863Z,12.37
2018-04-13T13:10:47.204Z,9.67
2018-04-13T13:13:15.077Z,10.07
2018-04-13T13:15:42.709Z,9.67
2018-04-13T13:18:10.299Z,10.40
2018-04-13T13:20:37.856Z,12.00
2018-04-13T13:23:05.446Z,9.73
2018-04-13T13:25:33.834Z,9.80
2018-04-13T13:28:01.412Z,7.70
2018-04-13T13:30:29.114Z,10.63
2018-04-13T13:32:56.707Z,8.17
2018-04-13T13:35:25.711Z,11.27
2018-04-13T13:37:53.309Z,13.03
2018-04-13T13:40:20.875Z,9.50
2018-04-13T13:42:48.505Z,10.00
2018-04-13T13:45:16.077Z,5.93
2018-04-13T13:47:43.694Z,9.87
2018-04-13T13:50:12.065Z,8.73
2018-04-13T13:52:39.770Z,13.47
2018-04-13T13:55:07.358Z,12.87
2018-04-13T13:57:34.946Z,11.80
2018-04-13T14:00:03.418Z,11.63
2018-04-13T14:02:31.790Z,12.80
2018-04-13T14:04:59.720Z,15.73
2018-04-13T14:07:27.308Z,9.73
2018-04-13T14:09:54.902Z,11.97
2018-04-13T14:12:23.412Z,9.83
2018-04-13T14:14:51.062Z,9.77
2018-04-13T14:17:18.633Z,9.97
2018-04-13T14:19:46.246Z,9.60
2018-04-13T14:22:14.602Z,8.60
2018-04-13T14:24:42.250Z,9.20
2018-04-13T14:27:09.871Z,10.17
2018-04-13T14:29:37.491Z,8.40
2018-04-13T14:32:05.076Z,14.13
2018-04-13T14:34:33.430Z,16.73
2018-04-13T14:37:01.053Z,16.13
2018-04-13T14:39:28.655Z,12.60
2018-04-13T14:41:56.283Z,17.73
2018-04-13T14:44:23.871Z,23.43
2018-04-13T14:46:52.639Z,20.23
2018-04-13T14:49:20.619Z,17.43
2018-04-13T14:51:48.258Z,14.57
2018-04-13T14:54:15.913Z,11.13
2018-04-13T14:56:43.646Z,12.30
2018-04-13T14:59:11.215Z,13.33
2018-04-13T15:01:39.082Z,17.77
2018-04-13T15:04:06.844Z,11.40
2018-04-13T15:06:34.446Z,11.53
2018-04-13T15:09:02.060Z,13.50
2018-04-13T15:11:29.723Z,11.90
2018-04-13T15:13:57.316Z,13.93
2018-04-13T15:16:24.910Z,7.53
2018-04-13T15:18:53.289Z,9.43
2018-04-13T15:21:21.703Z,10.40
2018-04-13T15:23:49.291Z,8.00
2018-04-13T15:26:16.869Z,10.20
2018-04-13T15:28:44.463Z,10.47
2018-04-13T15:31:12.875Z,9.20
2018-04-13T15:33:40.535Z,11.17
2018-04-13T15:36:08.105Z,11.77
2018-04-13T15:38:35.962Z,11.37
2018-04-13T15:41:03.759Z,13.60
2018-04-13T15:43:31.348Z,12.83
2018-04-13T15:45:59.747Z,13.57
2018-04-13T15:48:27.307Z,9.73
2018-04-13T15:50:54.888Z,11.50
2018-04-13T15:53:22.501Z,10.80
2018-04-13T15:55:50.840Z,9.20
2018-04-13T15:58:18.401Z,9.00
2018-04-13T16:00:46.350Z,9.87
2018-04-13T16:03:14.008Z,10.20
2018-04-13T16:05:41.588Z,13.63
2018-04-13T16:08:10.046Z,12.50
2018-04-13T16:10:37.646Z,11.53
2018-04-13T16:13:05.441Z,12.10
2018-04-13T16:15:33.072Z,9.73
2018-04-13T16:18:00.652Z,10.23
2018-04-13T16:20:29.035Z,13.33
2018-04-13T16:22:57.375Z,11.83
2018-04-13T16:25:25.026Z,10.73
2018-04-13T16:27:52.749Z,9.03
2018-04-13T16:30:20.328Z,10.07
2018-04-13T16:32:47.949Z,15.97
2018-04-13T16:35:16.574Z,13.43
2018-04-13T16:37:44.187Z,12.13
2018-04-13T16:40:12.641Z,11.90
2018-04-13T16:42:41.208Z,12.87
2018-04-13T16:45:09.128Z,12.27
2018-04-13T16:47:37.503Z,14.70
2018-04-13T16:50:05.851Z,18.57
2018-04-13T16:52:33.483Z,25.23
2018-04-13T16:55:01.273Z,22.13
2018-04-13T16:57:28.991Z,23.00
2018-04-13T16:59:56.603Z,27.10
2018-04-13T17:02:24.191Z,27.80
2018-04-13T17:04:52.572Z,26.07
2018-04-13T17:07:20.191Z,32.80
2018-04-13T17:09:47.903Z,32.70
2018-04-13T17:12:15.643Z,32.73
2018-04-13T17:14:44.009Z,30.40
2018-04-13T17:17:11.644Z,33.33
2018-04-13T17:19:39.205Z,29.80
2018-04-13T17:22:06.777Z,28.57
2018-04-13T17:24:34.379Z,33.43
2018-04-13T17:27:02.998Z,35.40
2018-04-13T17:29:30.749Z,40.73
2018-04-13T17:32:00.374Z,36.43
2018-04-13T17:34:27.938Z,37.77
2018-04-13T17:36:55.573Z,32.43
2018-04-13T17:39:23.156Z,34.17
2018-04-13T17:41:50.791Z,34.83
2018-04-13T17:44:18.409Z,32.90
2018-04-13T17:46:46.781Z,26.93
2018-04-13T17:49:14.765Z,27.83
2018-04-13T17:51:43.677Z,26.53
2018-04-13T17:54:11.317Z,29.63
2018-04-13T17:56:39.822Z,24.53
2018-04-13T17:59:07.402Z,24.50
2018-04-13T18:01:35.435Z,26.33
2018-04-13T18:04:04.048Z,27.47
2018-04-13T18:06:31.921Z,23.93
2018-04-13T18:08:59.731Z,24.93
2018-04-13T18:11:27.814Z,24.23
2018-04-13T18:13:56.768Z,21.80
2018-04-13T18:16:24.516Z,21.53
2018-04-13T18:18:52.882Z,21.97
2018-04-13T18:21:20.472Z,25.50
2018-04-13T18:23:48.099Z,24.40
2018-04-13T18:26:15.683Z,20.53
2018-04-13T18:28:43.647Z,22.63
2018-04-13T18:31:17.747Z,18.83
2018-04-13T18:33:45.475Z,20.60
2018-04-13T18:36:13.988Z,21.10
2018-04-13T18:38:41.615Z,20.73
2018-04-13T18:41:11.358Z,19.97
2018-04-13T18:43:39.004Z,21.30
2018-04-13T18:46:06.653Z,23.87
2018-04-13T18:48:34.267Z,19.07
2018-04-13T18:51:01.868Z,18.90
2018-04-13T18:53:31.144Z,16.93
2018-04-13T18:55:58.774Z,18.00
2018-04-13T18:58:26.431Z,16.80
2018-04-13T19:00:54.033Z,25.40
2018-04-13T19:03:23.790Z,16.77
2018-04-13T19:05:51.409Z,22.20
2018-04-13T19:08:19.791Z,19.97
2018-04-13T19:10:48.161Z,17.37
2018-04-13T19:13:16.724Z,20.43
2018-04-13T19:15:44.299Z,25.70
2018-04-13T19:18:11.896Z,19.13
2018-04-13T19:20:39.549Z,17.57
2018-04-13T19:23:07.144Z,20.73
2018-04-13T19:25:34.758Z,31.50
2018-04-13T19:28:03.164Z,25.37
2018-04-13T19:30:31.721Z,31.57
2018-04-13T19:33:00.081Z,27.53
2018-04-13T19:35:28.714Z,26.77
2018-04-13T19:37:56.408Z,24.97
2018-04-13T19:40:24.011Z,26.73
2018-04-13T19:42:51.634Z,29.60
2018-04-13T19:45:19.380Z,33.33
2018-04-13T19:47:47.049Z,26.00
2018-04-13T19:50:15.076Z,25.43
2018-04-13T19:52:42.799Z,26.93
2018-04-13T19:55:10.454Z,27.30
2018-04-13T19:57:38.135Z,31.20
2018-04-13T20:00:05.739Z,23.60
2018-04-13T20:02:34.063Z,21.83
2018-04-13T20:05:01.725Z,21.03
2018-04-13T20:07:29.315Z,25.20
2018-04-13T20:09:57.475Z,22.67
2018-04-13T20:12:28.788Z,20.67
2018-04-13T20:14:56.490Z,21.60
2018-04-13T20:17:24.084Z,26.40
2018-04-13T20:19:52.530Z,24.43
2018-04-13T20:22:20.663Z,24.47
2018-04-13T20:24:48.242Z,28.23
2018-04-13T20:27:15.927Z,29.63
2018-04-13T20:29:47.795Z,37.00
2018-04-13T20:32:16.157Z,34.03
2018-04-13T20:34:43.799Z,37.80
2018-04-13T20:37:11.434Z,38.57
2018-04-13T20:39:39.034Z,37.20
2018-04-13T20:42:06.640Z,36.63
2018-04-13T20:44:34.248Z,38.83
2018-04-13T20:47:01.940Z,35.67
2018-04-13T20:49:30.548Z,39.43
2018-04-13T20:51:58.118Z,34.90
2018-04-13T20:54:26.121Z,36.33
2018-04-13T20:56:53.863Z,38.40
2018-04-13T20:59:21.512Z,38.10
2018-04-13T21:01:49.209Z,40.77
2018-04-13T21:04:16.800Z,39.33
2018-04-13T21:06:45.183Z,38.93
2018-04-13T21:09:14.318Z,40.00
2018-04-13T21:11:42.110Z,39.53
2018-04-13T21:14:09.721Z,45.63
2018-04-13T21:16:37.318Z,47.77
2018-04-13T21:19:04.950Z,46.50
2018-04-13T21:21:32.553Z,47.80
2018-04-13T21:24:00.132Z,45.97
2018-04-13T21:26:27.808Z,49.73
2018-04-13T21:28:56.161Z,48.33
2018-04-13T21:31:23.730Z,44.87
2018-04-13T21:33:51.416Z,47.40
2018-04-13T21:36:19.017Z,47.87
2018-04-13T21:38:46.612Z,46.37
2018-04-13T21:41:14.288Z,45.60
2018-04-13T21:43:42.620Z,46.93
2018-04-13T21:46:10.190Z,43.30
2018-04-13T21:48:38.107Z,45.67
2018-04-13T21:51:05.837Z,43.53
2018-04-13T21:53:34.394Z,40.93
2018-04-13T21:56:02.021Z,40.43
2018-04-13T21:58:29.847Z,39.80
2018-04-13T22:00:57.440Z,35.37
2018-04-13T22:03:25.006Z,31.40
2018-04-13T22:05:52.618Z,29.10
2018-04-13T22:08:20.216Z,27.80
2018-04-13T22:10:47.840Z,28.43
2018-04-13T22:13:27.201Z,29.47
2018-04-13T22:15:55.564Z,26.80
2018-04-13T22:18:23.949Z,29.33
2018-04-13T22:20:52.371Z,32.63
2018-04-13T22:23:20.028Z,33.40
2018-04-13T22:25:47.602Z,36.30
2018-04-13T22:28:15.250Z,27.80
2018-04-13T22:30:42.826Z,30.70
2018-04-13T22:33:10.431Z,37.73
2018-04-13T22:35:38.811Z,38.97
2018-04-13T22:38:07.162Z,36.23
2018-04-13T22:40:34.814Z,34.73
2018-04-13T22:43:02.429Z,31.30
2018-04-13T22:45:30.017Z,23.00
2018-04-13T22:47:57.801Z,26.57
2018-04-13T22:50:25.533Z,24.70
2018-04-13T22:52:53.108Z,25.67
2018-04-13T22:55:20.756Z,26.23
2018-04-13T22:57:48.358Z,22.43
2018-04-13T23:00:16.710Z,22.70
2018-04-13T23:02:44.603Z,19.73
2018-04-13T23:05:13.035Z,17.57
2018-04-13T23:07:41.511Z,18.87
2018-04-13T23:10:09.102Z,18.03
2018-04-13T23:12:36.828Z,26.47
2018-04-13T23:15:04.449Z,27.13
2018-04-13T23:17:32.028Z,21.10
2018-04-13T23:20:00.596Z,25.00
2018-04-13T23:22:37.852Z,22.07
2018-04-13T23:25:05.653Z,25.43
2018-04-13T23:27:34.023Z,28.20
2018-04-13T23:30:02.432Z,26.00
2018-04-13T23:32:29.990Z,25.33
2018-04-13T23:34:57.563Z,22.77
2018-04-13T23:37:25.326Z,24.93
2018-04-13T23:39:52.886Z,16.57
2018-04-13T23:42:20.514Z,14.67
2018-04-13T23:44:48.880Z,14.93
2018-04-13T23:47:17.229Z,15.33
2018-04-13T23:49:44.826Z,13.70
2018-04-13T23:52:15.073Z,11.63
2018-04-13T23:54:42.638Z,9.40
2018-04-13T23:57:10.239Z,16.03
2018-04-13T23:59:38.390Z,13.53
